createdAt,value
2018-11-04T00:01:53.070Z,30.47
2018-11-04T00:04:20.340Z,23.90
2018-11-04T00:06:47.606Z,24.00
2018-11-04T00:09:16.254Z,25.97
2018-11-04T00:11:44.076Z,27.97
2018-11-04T00:14:11.330Z,28.37
2018-11-04T00:16:38.611Z,24.40
2018-11-04T00:19:05.911Z,26.50
2018-11-04T00:21:33.183Z,27.87
2018-11-04T00:24:00.479Z,33.07
2018-11-04T00:26:27.804Z,33.07
2018-11-04T00:28:55.029Z,36.57
2018-11-04T00:31:22.364Z,42.00
2018-11-04T00:33:49.607Z,31.67
2018-11-04T00:36:16.830Z,33.33
2018-11-04T00:38:44.175Z,39.10
2018-11-04T00:41:11.396Z,38.97
2018-11-04T00:43:38.627Z,35.73
2018-11-04T00:46:05.962Z,39.23
2018-11-04T00:48:33.237Z,37.03
2018-11-04T00:51:00.443Z,31.97
2018-11-04T00:53:27.704Z,32.93
2018-11-04T00:55:55.669Z,34.37
2018-11-04T00:58:24.254Z,34.20
2018-11-04T01:00:51.632Z,32.43
2018-11-04T01:03:18.881Z,30.97
2018-11-04T01:05:46.112Z,37.27
2018-11-04T01:08:13.463Z,44.17
2018-11-04T01:10:40.697Z,43.23
2018-11-04T01:13:07.923Z,48.33
2018-11-04T01:15:35.292Z,45.73
2018-11-04T01:18:02.540Z,42.70
2018-11-04T01:20:29.771Z,35.80
2018-11-04T01:22:57.023Z,36.30
2018-11-04T01:25:24.239Z,32.53
2018-11-04T01:27:51.463Z,35.60
2018-11-04T01:30:18.891Z,32.87
2018-11-04T01:32:46.199Z,32.33
2018-11-04T01:35:13.484Z,31.20
2018-11-04T01:37:40.949Z,37.90
2018-11-04T01:40:08.982Z,40.13
2018-11-04T01:42:36.322Z,32.90
2018-11-04T01:45:04.632Z,26.83
2018-11-04T01:47:31.843Z,31.33
2018-11-04T01:49:59.090Z,30.37
2018-11-04T01:52:26.468Z,28.63
2018-11-04T01:54:53.697Z,29.70
2018-11-04T01:57:20.918Z,26.33
2018-11-04T01:59:48.252Z,21.90
2018-11-04T02:02:15.491Z,23.37
2018-11-04T02:04:42.732Z,21.00
2018-11-04T02:07:10.057Z,21.97
2018-11-04T02:09:37.283Z,20.23
2018-11-04T02:12:05.202Z,21.20
2018-11-04T02:14:32.471Z,19.93
2018-11-04T02:16:59.684Z,24.83
2018-11-04T02:19:26.907Z,20.27
2018-11-04T02:21:54.226Z,22.13
2018-11-04T02:24:21.445Z,18.93
2018-11-04T02:26:48.733Z,20.33
2018-11-04T02:29:16.062Z,21.80
2018-11-04T02:31:43.269Z,19.67
2018-11-04T02:34:10.487Z,17.93
2018-11-04T02:36:37.843Z,14.43
2018-11-04T02:39:05.888Z,19.17
2018-11-04T02:41:33.107Z,19.83
2018-11-04T02:44:00.441Z,15.33
2018-11-04T02:46:27.670Z,16.07
2018-11-04T02:48:54.883Z,18.57
2018-11-04T02:51:22.205Z,16.27
2018-11-04T02:53:49.387Z,16.50
2018-11-04T02:56:16.627Z,13.33
2018-11-04T02:58:44.023Z,16.00
2018-11-04T03:01:11.252Z,15.43
2018-11-04T03:03:38.513Z,17.47
2018-11-04T03:06:05.929Z,16.23
2018-11-04T03:08:33.151Z,15.03
2018-11-04T03:11:00.384Z,13.83
2018-11-04T03:13:27.727Z,15.27
2018-11-04T03:15:54.945Z,17.13
2018-11-04T03:18:22.198Z,16.43
2018-11-04T03:20:49.510Z,14.20
2018-11-04T03:23:16.751Z,15.67
2018-11-04T03:25:44.040Z,16.93
2018-11-04T03:28:11.311Z,17.10
2018-11-04T03:30:39.183Z,15.93
2018-11-04T03:33:07.364Z,17.77
2018-11-04T03:35:34.774Z,18.30
2018-11-04T03:38:02.024Z,16.70
2018-11-04T03:40:29.325Z,14.37
2018-11-04T03:42:56.611Z,14.10
2018-11-04T03:45:23.819Z,16.43
2018-11-04T03:47:51.032Z,22.13
2018-11-04T03:50:18.391Z,16.53
2018-11-04T03:52:45.700Z,23.93
2018-11-04T03:55:12.959Z,27.30
2018-11-04T03:57:40.295Z,31.50
2018-11-04T04:00:10.403Z,30.77
2018-11-04T04:02:37.707Z,30.10
2018-11-04T04:05:05.719Z,29.80
2018-11-04T04:07:32.944Z,27.37
2018-11-04T04:10:00.172Z,23.70
2018-11-04T04:12:27.562Z,29.27
2018-11-04T04:14:54.797Z,28.47
2018-11-04T04:17:22.064Z,25.93
2018-11-04T04:19:49.328Z,23.33
2018-11-04T04:22:16.579Z,23.17
2018-11-04T04:24:43.838Z,21.40
2018-11-04T04:27:11.108Z,23.63
2018-11-04T04:29:38.332Z,27.73
2018-11-04T04:32:05.589Z,29.93
2018-11-04T04:34:33.312Z,29.33
2018-11-04T04:37:00.555Z,34.40
2018-11-04T04:39:27.791Z,32.77
2018-11-04T04:41:55.065Z,34.27
2018-11-04T04:44:22.276Z,44.33
2018-11-04T04:46:49.497Z,37.27
2018-11-04T04:49:16.784Z,43.33
2018-11-04T04:51:44.024Z,43.73
2018-11-04T04:54:11.261Z,44.33
2018-11-04T04:56:38.599Z,41.47
2018-11-04T04:59:05.863Z,41.00
2018-11-04T05:01:33.082Z,50.87
2018-11-04T05:04:00.354Z,47.13
2018-11-04T05:06:27.575Z,47.67
2018-11-04T05:08:54.776Z,46.37
2018-11-04T05:11:22.147Z,36.60
2018-11-04T05:13:49.391Z,43.47
2018-11-04T05:16:16.643Z,39.17
2018-11-04T05:18:43.993Z,46.53
2018-11-04T05:21:11.226Z,40.23
2018-11-04T05:23:38.452Z,52.80
2018-11-04T05:26:05.878Z,51.37
2018-11-04T05:28:33.082Z,49.53
2018-11-04T05:31:00.390Z,41.53
2018-11-04T05:33:27.762Z,42.03
2018-11-04T05:35:54.982Z,42.33
2018-11-04T05:38:22.290Z,35.80
2018-11-04T05:40:49.567Z,35.33
2018-11-04T05:43:16.789Z,37.33
2018-11-04T05:45:44.027Z,33.57
2018-11-04T05:48:11.396Z,38.80
2018-11-04T05:50:38.629Z,30.10
2018-11-04T05:53:05.914Z,31.73
2018-11-04T05:55:33.304Z,37.80
2018-11-04T05:58:00.542Z,40.17
2018-11-04T06:00:27.810Z,52.03
2018-11-04T06:02:55.174Z,45.73
2018-11-04T06:05:22.407Z,49.00
2018-11-04T06:07:49.634Z,41.07
2018-11-04T06:10:16.964Z,37.77
2018-11-04T06:12:44.194Z,33.53
2018-11-04T06:15:11.424Z,28.80
2018-11-04T06:17:38.747Z,37.57
2018-11-04T06:20:07.392Z,28.77
2018-11-04T06:22:34.645Z,31.63
2018-11-04T06:25:02.059Z,35.23
2018-11-04T06:27:29.336Z,35.47
2018-11-04T06:29:56.595Z,32.37
2018-11-04T06:32:23.857Z,33.33
2018-11-04T06:34:51.102Z,41.53
2018-11-04T06:37:18.338Z,35.23
2018-11-04T06:39:45.717Z,41.30
2018-11-04T06:42:12.956Z,45.03
2018-11-04T06:44:40.185Z,37.87
2018-11-04T06:47:07.600Z,37.00
2018-11-04T06:49:34.803Z,40.83
2018-11-04T06:52:02.066Z,46.67
2018-11-04T06:54:29.436Z,38.00
2018-11-04T06:56:56.691Z,46.70
2018-11-04T06:59:23.923Z,34.87
2018-11-04T07:01:51.297Z,33.97
2018-11-04T07:04:25.185Z,37.30
2018-11-04T07:06:52.574Z,28.27
2018-11-04T07:09:19.894Z,31.63
2018-11-04T07:11:47.987Z,29.67
2018-11-04T07:14:15.569Z,39.63
2018-11-04T07:16:43.435Z,34.17
2018-11-04T07:19:10.738Z,38.63
2018-11-04T07:21:38.096Z,31.13
2018-11-04T07:24:05.938Z,35.50
2018-11-04T07:26:33.392Z,28.90
2018-11-04T07:29:00.723Z,26.00
2018-11-04T07:31:28.008Z,29.10
2018-11-04T07:33:55.278Z,24.83
2018-11-04T07:36:22.647Z,28.23
2018-11-04T07:38:49.913Z,29.83
2018-11-04T07:41:17.447Z,26.07
2018-11-04T07:43:44.735Z,26.83
2018-11-04T07:46:12.073Z,31.40
2018-11-04T07:48:39.325Z,33.20
2018-11-04T07:51:06.619Z,29.03
2018-11-04T07:53:33.959Z,27.43
2018-11-04T07:56:01.238Z,29.50
2018-11-04T07:58:28.643Z,27.27
2018-11-04T08:00:55.956Z,28.83
2018-11-04T08:03:23.195Z,30.97
2018-11-04T08:05:50.632Z,30.73
2018-11-04T08:08:17.924Z,46.73
2018-11-04T08:10:45.263Z,35.63
2018-11-04T08:13:12.634Z,46.13
2018-11-04T08:15:39.893Z,32.93
2018-11-04T08:18:07.158Z,33.53
2018-11-04T08:20:34.604Z,27.77
2018-11-04T08:23:01.861Z,25.60
2018-11-04T08:25:29.106Z,22.90
2018-11-04T08:27:56.467Z,22.50
2018-11-04T08:30:23.731Z,21.20
2018-11-04T08:32:50.984Z,23.53
2018-11-04T08:35:18.377Z,22.60
2018-11-04T08:37:45.623Z,19.23
2018-11-04T08:40:12.941Z,21.77
2018-11-04T08:42:40.301Z,19.47
2018-11-04T08:45:07.807Z,20.53
2018-11-04T08:47:35.097Z,21.53
2018-11-04T08:50:02.460Z,25.93
2018-11-04T08:52:29.849Z,31.57
2018-11-04T08:54:57.362Z,33.00
2018-11-04T08:57:24.755Z,34.33
2018-11-04T08:59:52.119Z,35.57
2018-11-04T09:02:19.380Z,39.37
2018-11-04T09:04:46.739Z,45.40
2018-11-04T09:07:14.007Z,37.47
2018-11-04T09:09:41.268Z,40.40
2018-11-04T09:12:08.678Z,40.53
2018-11-04T09:14:35.905Z,37.73
2018-11-04T09:17:03.225Z,33.33
2018-11-04T09:19:30.639Z,31.80
2018-11-04T09:21:58.100Z,27.43
2018-11-04T09:24:25.235Z,28.63
2018-11-04T09:26:53.387Z,29.97
2018-11-04T09:29:20.916Z,27.50
2018-11-04T09:31:48.239Z,23.97
2018-11-04T09:34:15.685Z,26.50
2018-11-04T09:36:42.954Z,26.50
2018-11-04T09:39:11.291Z,20.60
2018-11-04T09:41:38.664Z,18.83
2018-11-04T09:44:06.027Z,21.97
2018-11-04T09:46:33.325Z,21.30
2018-11-04T09:49:00.846Z,23.37
2018-11-04T09:51:28.318Z,17.87
2018-11-04T09:53:55.615Z,20.43
2018-11-04T09:56:23.058Z,25.00
2018-11-04T09:58:50.335Z,23.90
2018-11-04T10:01:17.691Z,21.87
2018-11-04T10:03:45.156Z,23.10
2018-11-04T10:06:12.408Z,19.60
2018-11-04T10:08:39.686Z,24.20
2018-11-04T10:11:07.155Z,20.13
2018-11-04T10:13:34.451Z,21.47
2018-11-04T10:16:01.802Z,24.10
2018-11-04T10:18:29.139Z,21.67
2018-11-04T10:20:56.965Z,19.53
2018-11-04T10:23:23.893Z,18.43
2018-11-04T10:25:51.343Z,17.37
2018-11-04T10:28:18.610Z,17.07
2018-11-04T10:30:45.863Z,15.10
2018-11-04T10:33:13.250Z,20.70
2018-11-04T10:35:40.602Z,14.23
2018-11-04T10:38:07.851Z,14.00
2018-11-04T10:40:35.280Z,16.30
2018-11-04T10:43:02.548Z,15.43
2018-11-04T10:45:29.854Z,15.60
2018-11-04T10:47:57.145Z,15.73
2018-11-04T10:50:24.437Z,18.50
2018-11-04T10:52:51.742Z,17.40
2018-11-04T10:55:19.134Z,13.33
2018-11-04T10:57:46.471Z,12.73
2018-11-04T11:00:19.501Z,14.43
2018-11-04T11:02:46.749Z,16.60
2018-11-04T11:05:14.347Z,18.03
2018-11-04T11:07:41.759Z,15.33
2018-11-04T11:10:09.863Z,17.13
2018-11-04T11:12:37.172Z,14.63
2018-11-04T11:15:05.616Z,16.93
2018-11-04T11:17:32.873Z,14.03
2018-11-04T11:20:00.171Z,17.50
2018-11-04T11:22:27.782Z,14.37
2018-11-04T11:24:55.030Z,18.17
2018-11-04T11:27:22.464Z,16.37
2018-11-04T11:29:49.845Z,20.27
2018-11-04T11:32:17.185Z,15.70
2018-11-04T11:34:44.412Z,13.60
2018-11-04T11:37:11.860Z,12.90
2018-11-04T11:39:39.127Z,13.33
2018-11-04T11:42:06.396Z,13.03
2018-11-04T11:44:33.797Z,15.53
2018-11-04T11:47:01.237Z,12.70
2018-11-04T11:49:28.503Z,16.20
2018-11-04T11:51:55.907Z,16.73
2018-11-04T11:54:23.211Z,16.10
2018-11-04T11:56:50.588Z,20.00
2018-11-04T11:59:18.008Z,13.40
2018-11-04T12:01:45.137Z,11.50
2018-11-04T12:04:12.867Z,10.23
2018-11-04T12:06:40.200Z,14.90
2018-11-04T12:09:07.837Z,9.43
2018-11-04T12:11:35.072Z,13.47
2018-11-04T12:14:02.421Z,11.80
2018-11-04T12:16:29.688Z,14.30
2018-11-04T12:18:57.076Z,11.70
2018-11-04T12:21:24.523Z,11.07
2018-11-04T12:23:51.926Z,13.70
2018-11-04T12:26:19.111Z,13.47
2018-11-04T12:28:46.485Z,11.77
2018-11-04T12:31:13.760Z,16.93
2018-11-04T12:33:41.057Z,12.23
2018-11-04T12:36:08.403Z,11.33
2018-11-04T12:38:35.663Z,9.60
2018-11-04T12:41:02.939Z,11.33
2018-11-04T12:43:30.339Z,10.63
2018-11-04T12:45:57.589Z,11.53
2018-11-04T12:48:24.851Z,9.80
2018-11-04T12:50:52.255Z,11.37
2018-11-04T12:53:19.486Z,8.73
2018-11-04T12:55:46.763Z,9.40
2018-11-04T12:58:14.212Z,10.43
2018-11-04T13:00:41.518Z,11.77
2018-11-04T13:03:08.755Z,9.57
2018-11-04T13:05:36.070Z,8.53
2018-11-04T13:08:03.328Z,7.87
2018-11-04T13:10:30.583Z,7.47
2018-11-04T13:12:58.101Z,6.93
2018-11-04T13:15:25.416Z,7.33
2018-11-04T13:17:52.642Z,8.53
2018-11-04T13:20:19.927Z,6.13
2018-11-04T13:22:47.183Z,7.70
2018-11-04T13:25:14.411Z,6.87
2018-11-04T13:27:41.707Z,7.13
2018-11-04T13:30:10.254Z,9.30
2018-11-04T13:32:37.819Z,8.50
2018-11-04T13:35:05.414Z,7.93
2018-11-04T13:37:32.660Z,11.00
2018-11-04T13:39:59.911Z,10.13
2018-11-04T13:42:27.256Z,8.40
2018-11-04T13:44:54.510Z,9.53
2018-11-04T13:47:21.784Z,5.10
2018-11-04T13:49:49.058Z,6.00
2018-11-04T13:52:16.286Z,8.77
2018-11-04T13:54:43.514Z,8.53
2018-11-04T13:57:10.901Z,5.97
2018-11-04T13:59:38.143Z,10.37
2018-11-04T14:02:05.451Z,13.37
2018-11-04T14:04:32.736Z,6.87
2018-11-04T14:07:00.007Z,6.67
2018-11-04T14:09:27.248Z,7.77
2018-11-04T14:11:54.619Z,9.17
2018-11-04T14:14:21.846Z,7.70
2018-11-04T14:16:49.085Z,11.13
2018-11-04T14:19:16.426Z,9.13
2018-11-04T14:21:43.668Z,9.47
2018-11-04T14:24:10.922Z,9.17
2018-11-04T14:26:38.184Z,10.63
2018-11-04T14:29:05.483Z,8.97
2018-11-04T14:31:32.709Z,8.90
2018-11-04T14:33:59.975Z,9.07
2018-11-04T14:36:27.224Z,13.07
2018-11-04T14:38:54.507Z,11.03
2018-11-04T14:41:21.866Z,11.43
2018-11-04T14:43:49.076Z,12.97
2018-11-04T14:46:16.304Z,12.13
2018-11-04T14:48:43.565Z,12.70
2018-11-04T14:51:10.791Z,16.73
2018-11-04T14:53:38.059Z,12.33
2018-11-04T14:56:05.779Z,12.83
2018-11-04T14:58:32.999Z,12.83
2018-11-04T15:01:00.314Z,12.27
2018-11-04T15:03:27.658Z,10.87
2018-11-04T15:05:54.894Z,12.30
2018-11-04T15:08:22.155Z,12.47
2018-11-04T15:10:49.499Z,11.17
2018-11-04T15:13:16.739Z,10.87
2018-11-04T15:15:43.965Z,13.53
2018-11-04T15:18:11.295Z,12.40
2018-11-04T15:20:38.511Z,9.50
2018-11-04T15:23:05.766Z,8.23
2018-11-04T15:25:33.107Z,11.63
2018-11-04T15:28:00.443Z,18.23
2018-11-04T15:30:27.668Z,11.53
2018-11-04T15:32:55.013Z,12.07
2018-11-04T15:35:22.256Z,13.47
2018-11-04T15:37:49.502Z,11.60
2018-11-04T15:40:17.217Z,9.50
2018-11-04T15:42:44.507Z,11.00
2018-11-04T15:45:12.799Z,11.13
2018-11-04T15:47:40.600Z,19.97
2018-11-04T15:50:10.331Z,11.17
2018-11-04T15:52:37.565Z,12.80
2018-11-04T15:55:05.062Z,10.20
2018-11-04T16:00:09.382Z,8.47
2018-11-04T16:02:43.408Z,13.33
2018-11-04T16:05:11.315Z,13.80
2018-11-04T16:07:38.512Z,8.43
2018-11-04T16:10:07.101Z,8.13
2018-11-04T16:12:34.550Z,9.97
2018-11-04T16:15:01.835Z,11.93
2018-11-04T16:17:29.115Z,9.93
2018-11-04T16:19:56.513Z,7.40
2018-11-04T16:22:23.742Z,8.83
2018-11-04T16:24:51.002Z,5.97
2018-11-04T16:27:18.335Z,8.90
2018-11-04T16:29:45.889Z,4.23
2018-11-04T16:32:13.395Z,7.57
2018-11-04T16:34:41.336Z,7.07
2018-11-04T16:37:08.640Z,8.27
2018-11-04T16:39:35.877Z,10.33
2018-11-04T16:42:03.240Z,7.00
2018-11-04T16:44:30.566Z,8.53
2018-11-04T16:46:57.812Z,8.60
2018-11-04T16:49:25.216Z,9.00
2018-11-04T16:51:52.478Z,10.03
2018-11-04T16:54:19.737Z,9.90
2018-11-04T16:56:47.111Z,9.97
2018-11-04T16:59:14.419Z,5.10
2018-11-04T17:01:41.700Z,5.50
2018-11-04T17:04:09.194Z,9.73
2018-11-04T17:06:36.511Z,7.87
2018-11-04T17:09:05.804Z,6.07
2018-11-04T17:11:33.266Z,6.80
2018-11-04T17:14:00.534Z,6.40
2018-11-04T17:16:27.777Z,10.13
2018-11-04T17:18:55.217Z,7.87
2018-11-04T17:21:22.474Z,10.83
2018-11-04T17:23:49.815Z,8.87
2018-11-04T17:26:17.270Z,10.53
2018-11-04T17:28:44.560Z,9.77
2018-11-04T17:31:11.829Z,8.47
2018-11-04T17:33:39.260Z,9.47
2018-11-04T17:36:06.611Z,7.97
2018-11-04T17:38:33.834Z,8.33
2018-11-04T17:41:01.173Z,8.10
2018-11-04T17:43:28.428Z,6.37
2018-11-04T17:45:55.666Z,6.83
2018-11-04T17:48:22.995Z,8.00
2018-11-04T17:50:50.232Z,8.73
2018-11-04T17:53:17.474Z,7.70
2018-11-04T17:55:44.918Z,11.33
2018-11-04T17:58:12.151Z,8.20
2018-11-04T18:00:39.393Z,7.33
2018-11-04T18:03:06.723Z,8.93
2018-11-04T18:05:33.936Z,7.67
2018-11-04T18:08:01.156Z,5.00
2018-11-04T18:10:28.554Z,4.80
2018-11-04T18:12:55.823Z,8.33
2018-11-04T18:15:23.079Z,6.47
2018-11-04T18:17:50.413Z,6.60
2018-11-04T18:20:17.663Z,9.60
2018-11-04T18:22:44.920Z,8.50
2018-11-04T18:25:12.562Z,10.37
2018-11-04T18:27:39.799Z,9.87
2018-11-04T18:30:09.032Z,5.87
2018-11-04T18:32:36.571Z,7.40
2018-11-04T18:35:04.187Z,7.00
2018-11-04T18:37:31.532Z,12.13
2018-11-04T18:39:58.942Z,10.03
2018-11-04T18:42:26.200Z,8.03
2018-11-04T18:44:53.467Z,8.30
2018-11-04T18:47:21.399Z,9.87
2018-11-04T18:49:49.281Z,9.00
2018-11-04T18:52:17.233Z,7.73
2018-11-04T18:54:44.567Z,6.43
2018-11-04T18:57:15.737Z,10.40
2018-11-04T18:59:42.988Z,10.17
2018-11-04T19:02:12.297Z,8.40
2018-11-04T19:04:39.542Z,10.20
2018-11-04T19:07:06.887Z,6.20
2018-11-04T19:09:34.252Z,6.60
2018-11-04T19:12:01.491Z,9.53
2018-11-04T19:14:28.733Z,6.57
2018-11-04T19:16:56.128Z,7.27
2018-11-04T19:19:23.364Z,12.20
2018-11-04T19:21:50.621Z,5.73
2018-11-04T19:24:18.007Z,8.80
2018-11-04T19:26:45.224Z,11.40
2018-11-04T19:29:12.528Z,8.57
2018-11-04T19:31:39.939Z,7.87
2018-11-04T19:34:07.171Z,8.53
2018-11-04T19:36:34.397Z,8.47
2018-11-04T19:39:01.748Z,7.80
2018-11-04T19:41:29.036Z,11.37
2018-11-04T19:43:56.250Z,8.70
2018-11-04T19:46:23.589Z,9.97
2018-11-04T19:48:50.929Z,6.80
2018-11-04T19:51:18.103Z,9.53
2018-11-04T19:53:45.643Z,8.83
2018-11-04T19:56:12.856Z,7.93
2018-11-04T19:58:40.132Z,9.30
2018-11-04T20:01:08.420Z,7.77
2018-11-04T20:03:35.661Z,9.07
2018-11-04T20:06:03.305Z,8.13
2018-11-04T20:08:30.727Z,6.17
2018-11-04T20:10:57.965Z,9.77
2018-11-04T20:13:31.151Z,9.20
2018-11-04T20:15:58.382Z,6.90
2018-11-04T20:18:31.460Z,7.77
2018-11-04T20:20:58.721Z,12.53
2018-11-04T20:23:26.091Z,13.13
2018-11-04T20:26:01.436Z,6.73
2018-11-04T20:28:28.688Z,11.10
2018-11-04T20:30:55.939Z,8.53
2018-11-04T20:33:23.300Z,8.93
2018-11-04T20:35:50.535Z,7.07
2018-11-04T20:38:17.824Z,7.37
2018-11-04T20:40:50.926Z,7.70
2018-11-04T20:43:18.201Z,8.40
2018-11-04T20:45:45.447Z,11.13
2018-11-04T20:48:18.690Z,5.93
2018-11-04T20:50:51.573Z,7.27
2018-11-04T20:53:18.930Z,10.47
2018-11-04T20:55:51.932Z,10.37
2018-11-04T20:58:19.580Z,8.00
2018-11-04T21:00:46.656Z,7.30
2018-11-04T21:03:13.881Z,9.43
2018-11-04T21:05:41.265Z,10.90
2018-11-04T21:08:08.543Z,7.53
2018-11-04T21:10:35.789Z,8.17
2018-11-04T21:13:03.327Z,9.80
2018-11-04T21:15:30.595Z,9.10
2018-11-04T21:17:57.893Z,9.73
2018-11-04T21:20:25.211Z,9.27
2018-11-04T21:22:52.484Z,6.70
2018-11-04T21:25:19.854Z,8.77
2018-11-04T21:27:47.223Z,10.53
2018-11-04T21:30:14.482Z,8.40
2018-11-04T21:32:42.196Z,11.43
2018-11-04T21:35:09.568Z,10.90
2018-11-04T21:37:36.843Z,8.37
2018-11-04T21:40:04.377Z,9.20
2018-11-04T21:42:31.847Z,12.70
2018-11-04T21:44:59.031Z,7.83
2018-11-04T21:47:26.307Z,13.77
2018-11-04T21:49:53.593Z,6.87
2018-11-04T21:52:20.857Z,8.13
2018-11-04T21:54:48.133Z,12.00
2018-11-04T21:57:15.500Z,12.27
2018-11-04T21:59:42.752Z,11.23
2018-11-04T22:02:10.105Z,13.37
2018-11-04T22:04:37.474Z,15.50
2018-11-04T22:07:05.247Z,13.00
2018-11-04T22:09:32.548Z,15.73
2018-11-04T22:11:59.949Z,16.40
2018-11-04T22:14:27.222Z,17.90
2018-11-04T22:16:54.612Z,18.43
2018-11-04T22:19:21.960Z,20.27
2018-11-04T22:21:49.264Z,22.97
2018-11-04T22:24:16.545Z,20.57
2018-11-04T22:26:43.948Z,21.67
2018-11-04T22:29:11.191Z,23.33
2018-11-04T22:31:38.456Z,31.97
2018-11-04T22:34:06.164Z,28.13
2018-11-04T22:36:33.494Z,24.10
2018-11-04T22:39:00.735Z,28.97
2018-11-04T22:41:28.261Z,29.43
2018-11-04T22:43:55.507Z,30.57
2018-11-04T22:46:22.756Z,42.23
2018-11-04T22:48:50.123Z,32.70
2018-11-04T22:51:17.376Z,38.57
2018-11-04T22:53:44.612Z,41.37
2018-11-04T22:56:12.076Z,39.30
2018-11-04T22:58:39.251Z,41.10
2018-11-04T23:01:06.538Z,39.83
2018-11-04T23:03:33.914Z,43.83
2018-11-04T23:06:05.071Z,47.40
2018-11-04T23:08:32.324Z,38.73
2018-11-04T23:10:59.694Z,55.27
2018-11-04T23:13:27.211Z,44.07
2018-11-04T23:15:54.437Z,42.73
2018-11-04T23:18:21.854Z,47.23
2018-11-04T23:20:49.060Z,61.33
2018-11-04T23:23:16.318Z,46.07
2018-11-04T23:25:43.697Z,47.70
2018-11-04T23:28:11.815Z,61.73
2018-11-04T23:30:39.072Z,50.60
2018-11-04T23:33:06.437Z,54.10
2018-11-04T23:35:33.705Z,55.50
2018-11-04T23:38:00.927Z,54.10
2018-11-04T23:40:28.283Z,53.77
2018-11-04T23:42:55.556Z,54.53
2018-11-04T23:45:22.831Z,54.43
2018-11-04T23:47:50.187Z,63.50
2018-11-04T23:50:17.455Z,60.90
2018-11-04T23:52:45.216Z,56.13
2018-11-04T23:55:13.384Z,63.13
2018-11-04T23:57:40.617Z,66.43
